ADDS METAR Data INFO
IDs: Format: Raw Decoded Include TAF

Data at: 1605 UTC 12 Dec 2017

KTUS 121553Z 12012G20KT 10SM CLR 16/M11 A3028 RMK AO2 SLP229 T01611111
KTUS 121453Z 13008KT 10SM CLR 13/M09 A3028 RMK AO2 SLP231 T01281094 53006
KTUS 121353Z 16005KT 10SM CLR 07/M07 A3027 RMK AO2 SLP233 T00721072
KTUS 121253Z 18008KT 10SM CLR 09/M07 A3026 RMK AO2 SLP226 T00941072
KTUS 121235Z 19007KT 10SM CLR 10/M07 A3026 RMK AO2 T01001067
KTUS 121153Z 12010KT 10SM CLR 14/M06 A3026 RMK AO2 SLP221 T01391061 10178 20117 50002
KTUS 121053Z 11006KT 10SM CLR 14/M06 A3026 RMK AO2 SLP218 T01441061
KTUS 120953Z 09009KT 10SM CLR 14/M06 A3027 RMK AO2 SLP219 T01441061
KTUS 120853Z AUTO 12008KT 10SM CLR 16/M06 A3026 RMK AO2 SLP215 T01561061 58003
KTUS 120753Z 12012KT 10SM CLR 17/M06 A3026 RMK AO2 SLP215 T01721061
KTUS 120653Z 12009KT 10SM CLR 17/M07 A3027 RMK AO2 SLP219 T01671067 402280139
KTUS 120553Z 12011KT 10SM CLR 17/M07 A3027 RMK AO2 SLP218 T01721067 10206 20144 53005
KTUS 120453Z 00000KT 10SM CLR 14/M07 A3026 RMK AO2 SLP222 T01441067
KTUS 120353Z 18003KT 10SM CLR 16/M07 A3025 RMK AO2 SLP219 T01611067
KTUS 120253Z 13004KT 10SM CLR 17/M07 A3025 RMK AO2 SLP218 T01721067 51009
KTUS 120153Z VRB03KT 10SM CLR 18/M07 A3025 RMK AO2 SLP217 T01831067
KTUS 120053Z 12008KT 10SM CLR 19/M07 A3023 RMK AO2 SLP210 T01941072
KTUS 112353Z 09005KT 10SM CLR 21/M07 A3022 RMK AO2 SLP204 T02061072 10228 20200 53001
KTUS 112253Z 10003KT 10SM CLR 23/M08 A3021 RMK AO2 SLP197 T02281078
KTUS 112153Z 13005KT 10SM CLR 23/M08 A3022 RMK AO2 SLP202 T02281078
KTUS 112053Z 12009KT 10SM CLR 22/M08 A3022 RMK AO2 SLP201 T02221078 58020
KTUS 111953Z 14012KT 10SM CLR 23/M08 A3024 RMK AO2 SLP210 T02281078
KTUS 111853Z 12012KT 10SM CLR 21/M08 A3027 RMK AO2 SLP220 T02061078
KTUS 111753Z 12012KT 10SM CLR 21/M08 A3028 RMK AO2 SLP223 T02111078 10211 20150 50003
KTUS 111653Z 11009KT 10SM CLR 18/M08 A3030 RMK AO2 SLP234 T01781078
KTUS 111553Z 15011KT 10SM CLR 17/M08 A3029 RMK AO2 SLP231 T01721083
KTUS 111453Z 12010G19KT 10SM CLR 16/M08 A3027 RMK AO2 SLP226 T01561083 53008
KTUS 111353Z 12012KT 10SM CLR 15/M09 A3026 RMK AO2 SLP221 T01501089
KTUS 111253Z 11010KT 10SM CLR 15/M09 A3025 RMK AO2 SLP217 T01501089
KTUS 111153Z 12012G21KT 10SM CLR 16/M09 A3025 RMK AO2 SLP213 T01611094 10172 20139 58006
KTUS 111053Z 12012KT 10SM CLR 15/M09 A3026 RMK AO2 SLP216 T01501094
KTUS 110953Z 14015KT 10SM CLR 16/M09 A3027 RMK AO2 SLP221 T01561094
KTUS 110853Z 11015KT 10SM CLR 16/M09 A3027 RMK AO2 SLP218 T01611094 58002
KTUS 110753Z 15011KT 10SM CLR 14/M09 A3027 RMK AO2 SLP221 T01391089
KTUS 110733Z 15007KT 10SM FEW001 14/M09 A3027 RMK AO2 T01441089
KTUS 110718Z 15008KT 2 1/2SM HZ FEW001 14/M09 A3027 RMK AO2 T01441089
KTUS 110653Z 15013KT 9SM CLR 14/M09 A3027 RMK AO2 SLP223 T01441089 402280133
KTUS 110553Z 12009G15KT 10SM CLR 17/M09 A3027 RMK AO2 SLP221 T01721094 10217 20156 51007
KTUS 110453Z 10003KT 10SM CLR 16/M09 A3027 RMK AO2 SLP222 T01611094